createdAt,value
2022-10-23T00:01:36.958Z,27.80
2022-10-23T00:04:12.289Z,22.20
2022-10-23T00:06:39.753Z,16.50
2022-10-23T00:09:08.268Z,11.82
2022-10-23T00:11:36.624Z,8.45
2022-10-23T00:14:06.032Z,7.00
2022-10-23T00:16:33.202Z,5.93
2022-10-23T00:19:00.271Z,6.85
2022-10-23T00:21:27.530Z,6.68
2022-10-23T00:23:54.448Z,6.20
2022-10-23T00:26:21.643Z,4.93
2022-10-23T00:28:51.552Z,3.35
2022-10-23T00:31:20.043Z,3.65
2022-10-23T00:33:48.057Z,3.05
2022-10-23T00:36:17.023Z,2.58
2022-10-23T00:38:44.311Z,3.15
2022-10-23T00:41:17.180Z,3.30
2022-10-23T00:44:18.006Z,3.30
2022-10-23T00:46:46.111Z,3.25
2022-10-23T00:49:13.714Z,3.75
2022-10-23T00:51:53.436Z,4.13
2022-10-23T00:54:24.862Z,4.28
2022-10-23T00:57:01.300Z,4.60
2022-10-23T00:59:29.217Z,5.18
2022-10-23T01:01:56.503Z,4.40
2022-10-23T01:04:24.616Z,5.22
2022-10-23T01:07:03.498Z,3.90
2022-10-23T01:09:36.490Z,5.13
2022-10-23T01:12:35.435Z,6.05
2022-10-23T01:15:15.723Z,5.65
2022-10-23T01:18:14.834Z,4.68
2022-10-23T01:21:03.889Z,3.95
2022-10-23T01:23:48.207Z,3.78
2022-10-23T01:26:56.757Z,4.07
2022-10-23T01:29:55.673Z,4.20
2022-10-23T01:32:33.689Z,4.28
2022-10-23T01:35:07.748Z,5.13
2022-10-23T01:38:04.890Z,5.30
2022-10-23T01:40:40.229Z,5.20
2022-10-23T01:43:19.795Z,5.25
2022-10-23T01:45:51.290Z,4.50
2022-10-23T01:48:22.387Z,4.43
2022-10-23T01:50:51.054Z,4.40
2022-10-23T01:53:19.494Z,4.57
2022-10-23T01:55:47.855Z,4.88
2022-10-23T01:58:16.253Z,4.90
2022-10-23T02:00:47.171Z,4.88
2022-10-23T02:03:17.504Z,4.72
2022-10-23T02:05:45.422Z,5.65
2022-10-23T02:08:12.877Z,4.97
2022-10-23T02:10:53.794Z,5.43
2022-10-23T02:13:26.177Z,5.97
2022-10-23T02:16:02.221Z,5.70
2022-10-23T02:18:38.150Z,5.22
2022-10-23T02:21:14.357Z,5.18
2022-10-23T02:23:56.179Z,6.20
2022-10-23T02:26:48.687Z,6.18
2022-10-23T02:29:24.897Z,6.90
2022-10-23T02:31:51.846Z,7.30
2022-10-23T02:34:19.321Z,7.55
2022-10-23T02:36:46.760Z,7.53
2022-10-23T02:39:13.780Z,7.50
2022-10-23T02:41:55.163Z,7.78
2022-10-23T02:44:28.021Z,6.90
2022-10-23T02:50:00.442Z,7.00
2022-10-23T02:53:04.173Z,7.55
2022-10-23T02:55:50.705Z,7.18
2022-10-23T02:58:32.479Z,7.38
2022-10-23T03:01:18.572Z,8.13
2022-10-23T03:03:51.539Z,9.02
2022-10-23T03:08:59.309Z,8.40
2022-10-23T03:11:26.602Z,7.55
2022-10-23T03:13:53.607Z,8.00
2022-10-23T03:16:20.526Z,8.63
2022-10-23T03:18:47.458Z,8.90
2022-10-23T03:21:14.401Z,8.65
2022-10-23T03:23:41.282Z,8.43
2022-10-23T03:26:08.296Z,9.15
2022-10-23T03:28:38.264Z,8.63
2022-10-23T03:31:05.337Z,10.10
2022-10-23T03:33:32.633Z,10.93
2022-10-23T03:35:59.485Z,9.35
2022-10-23T03:38:26.438Z,9.80
2022-10-23T03:40:53.341Z,9.25
2022-10-23T03:43:20.275Z,9.52
2022-10-23T03:45:47.200Z,9.05
2022-10-23T03:48:14.846Z,9.27
2022-10-23T03:50:41.781Z,9.88
2022-10-23T03:53:08.661Z,9.43
2022-10-23T03:55:35.555Z,9.40
2022-10-23T03:58:02.522Z,9.77
2022-10-23T04:00:29.502Z,9.40
2022-10-23T04:02:56.677Z,9.45
2022-10-23T04:05:23.569Z,9.75
2022-10-23T04:07:50.475Z,9.85
2022-10-23T04:10:17.398Z,10.00
2022-10-23T04:12:44.399Z,11.48
2022-10-23T04:15:11.721Z,12.13
2022-10-23T04:17:38.598Z,11.35
2022-10-23T04:20:05.739Z,11.45
2022-10-23T04:22:32.675Z,11.32
2022-10-23T04:24:59.548Z,13.13
2022-10-23T04:27:26.480Z,12.80
2022-10-23T04:29:55.564Z,12.88
2022-10-23T04:32:25.164Z,14.55
2022-10-23T04:34:52.112Z,14.68
2022-10-23T04:37:19.024Z,13.80
2022-10-23T04:39:45.967Z,14.43
2022-10-23T04:42:12.875Z,14.57
2022-10-23T04:44:39.925Z,14.93
2022-10-23T04:47:06.962Z,13.10
2022-10-23T04:49:33.836Z,14.00
2022-10-23T04:52:00.810Z,14.25
2022-10-23T04:54:27.731Z,17.95
2022-10-23T04:56:54.600Z,15.10
2022-10-23T04:59:21.487Z,18.73
2022-10-23T05:01:48.394Z,16.38
2022-10-23T05:04:15.379Z,16.65
2022-10-23T05:06:42.315Z,17.83
2022-10-23T05:09:09.186Z,16.65
2022-10-23T05:11:36.412Z,14.15
2022-10-23T05:14:03.359Z,14.90
2022-10-23T05:16:42.987Z,15.93
2022-10-23T05:19:14.224Z,16.75
2022-10-23T05:21:41.916Z,17.92
2022-10-23T05:24:10.337Z,17.77
2022-10-23T05:26:37.379Z,18.00
2022-10-23T05:29:04.343Z,19.88
2022-10-23T05:31:32.992Z,19.55
2022-10-23T05:34:00.871Z,20.48
2022-10-23T05:36:27.967Z,19.30
2022-10-23T05:38:55.116Z,19.67
2022-10-23T05:41:22.126Z,18.65
2022-10-23T05:43:49.100Z,20.25
2022-10-23T05:46:16.018Z,22.05
2022-10-23T05:48:42.868Z,19.80
2022-10-23T05:51:12.043Z,20.58
2022-10-23T05:53:41.752Z,22.30
2022-10-23T05:56:09.914Z,24.20
2022-10-23T05:58:36.877Z,26.77
2022-10-23T06:01:09.012Z,21.15
2022-10-23T06:03:36.874Z,17.40
2022-10-23T06:06:04.315Z,23.60
2022-10-23T06:08:32.235Z,21.70
2022-10-23T06:10:59.204Z,21.42
2022-10-23T06:13:26.096Z,22.80
2022-10-23T06:15:53.095Z,24.70
2022-10-23T06:18:19.976Z,23.00
2022-10-23T06:20:46.927Z,19.27
2022-10-23T06:23:13.815Z,25.10
2022-10-23T06:25:40.701Z,29.42
2022-10-23T06:28:07.629Z,20.63
2022-10-23T06:30:34.565Z,23.88
2022-10-23T06:33:04.516Z,28.80
2022-10-23T06:35:33.396Z,24.13
2022-10-23T06:38:00.259Z,23.40
2022-10-23T06:40:27.193Z,19.00
2022-10-23T06:42:56.570Z,19.35
2022-10-23T06:45:23.539Z,21.13
2022-10-23T06:47:51.469Z,17.23
2022-10-23T06:50:18.727Z,23.13
2022-10-23T06:52:47.705Z,32.45
2022-10-23T06:55:15.108Z,19.17
2022-10-23T06:57:42.981Z,21.15
2022-10-23T07:00:11.014Z,30.15
2022-10-23T07:02:37.981Z,24.60
2022-10-23T07:05:07.707Z,21.42
2022-10-23T07:07:36.878Z,21.63
2022-10-23T07:10:04.694Z,19.02
2022-10-23T07:12:31.618Z,18.85
2022-10-23T07:14:58.571Z,20.52
2022-10-23T07:17:25.511Z,20.20
2022-10-23T07:19:52.382Z,21.33
2022-10-23T07:22:19.270Z,18.65
2022-10-23T07:24:46.148Z,18.63
2022-10-23T07:27:13.091Z,19.70
2022-10-23T07:29:40.040Z,21.33
2022-10-23T07:32:06.921Z,21.30
2022-10-23T07:34:33.920Z,18.42
2022-10-23T07:37:00.811Z,18.27
2022-10-23T07:39:27.882Z,18.67
2022-10-23T07:41:54.785Z,18.25
2022-10-23T07:44:23.162Z,16.88
2022-10-23T07:46:52.674Z,18.55
2022-10-23T07:49:19.621Z,17.80
2022-10-23T07:51:50.563Z,19.23
2022-10-23T07:54:19.020Z,17.63
2022-10-23T07:56:45.927Z,18.38
2022-10-23T07:59:13.352Z,20.13
2022-10-23T08:01:42.613Z,18.90
2022-10-23T08:04:10.920Z,31.10
2022-10-23T08:06:38.430Z,20.63
2022-10-23T08:09:06.726Z,20.83
2022-10-23T08:11:35.849Z,19.67
2022-10-23T08:14:04.787Z,20.15
2022-10-23T08:16:37.027Z,24.27
2022-10-23T08:19:08.205Z,29.33
2022-10-23T08:21:35.326Z,30.15
2022-10-23T08:24:02.291Z,29.52
2022-10-23T08:26:29.543Z,31.15
2022-10-23T08:28:58.761Z,26.10
2022-10-23T08:31:26.366Z,24.65
2022-10-23T08:33:53.298Z,25.42
2022-10-23T08:36:23.189Z,23.83
2022-10-23T08:38:50.396Z,24.33
2022-10-23T08:41:34.370Z,23.80
2022-10-23T08:44:24.061Z,23.88
2022-10-23T08:47:16.507Z,26.08
2022-10-23T08:49:57.249Z,25.75
2022-10-23T08:52:39.750Z,26.05
2022-10-23T08:55:33.249Z,26.13
2022-10-23T08:58:32.173Z,22.42
2022-10-23T09:00:59.285Z,28.33
2022-10-23T09:03:27.665Z,29.73
2022-10-23T09:06:31.035Z,25.48
2022-10-23T09:09:00.817Z,21.52
2022-10-23T09:11:51.371Z,22.42
2022-10-23T09:14:25.190Z,18.45
2022-10-23T09:22:13.793Z,24.33
2022-10-23T09:24:43.525Z,22.58
2022-10-23T09:27:17.006Z,26.77
2022-10-23T09:29:53.450Z,24.83
2022-10-23T09:32:32.159Z,18.88
2022-10-23T09:34:59.149Z,19.73
2022-10-23T09:37:32.694Z,22.15
2022-10-23T09:40:15.582Z,19.48
2022-10-23T09:42:53.629Z,20.83
2022-10-23T09:45:35.307Z,19.85
2022-10-23T09:48:11.617Z,20.20
2022-10-23T09:50:43.191Z,20.80
2022-10-23T09:53:17.237Z,19.97
2022-10-23T09:55:51.559Z,19.20
2022-10-23T09:58:25.122Z,18.63
2022-10-23T10:00:54.731Z,17.88
2022-10-23T10:03:24.112Z,18.40
2022-10-23T10:06:00.538Z,16.55
2022-10-23T10:08:44.456Z,19.17
2022-10-23T10:11:31.466Z,18.73
2022-10-23T10:14:13.227Z,19.40
2022-10-23T10:16:48.979Z,20.08
2022-10-23T10:19:21.396Z,17.80
2022-10-23T10:24:30.838Z,18.23
2022-10-23T10:27:18.526Z,16.42
2022-10-23T10:30:10.564Z,16.65
2022-10-23T10:32:50.586Z,16.30
2022-10-23T10:35:34.354Z,15.75
2022-10-23T10:38:19.752Z,13.23
2022-10-23T10:41:18.505Z,11.60
2022-10-23T10:44:17.388Z,12.18
2022-10-23T10:47:15.932Z,13.55
2022-10-23T10:49:45.442Z,12.40
2022-10-23T10:52:31.521Z,13.13
2022-10-23T10:55:23.547Z,12.82
2022-10-23T10:58:02.605Z,13.25
2022-10-23T11:00:31.502Z,12.15
2022-10-23T11:03:04.329Z,13.90
2022-10-23T11:05:41.153Z,14.38
2022-10-23T11:08:21.630Z,13.32
2022-10-23T11:11:00.401Z,13.20
2022-10-23T11:13:40.372Z,11.68
2022-10-23T11:16:24.037Z,13.43
2022-10-23T11:19:14.096Z,13.15
2022-10-23T11:22:09.923Z,14.52
2022-10-23T11:24:57.263Z,15.13
2022-10-23T11:27:51.322Z,13.95
2022-10-23T11:30:34.770Z,12.80
2022-10-23T11:33:01.656Z,14.25
2022-10-23T11:36:00.674Z,12.85
2022-10-23T11:38:37.151Z,14.38
2022-10-23T11:41:07.255Z,12.68
2022-10-23T11:44:01.804Z,13.43
2022-10-23T11:46:37.290Z,13.77
2022-10-23T11:49:06.422Z,11.75
2022-10-23T11:51:36.706Z,12.30
2022-10-23T11:54:15.565Z,12.38
2022-10-23T11:57:14.646Z,11.18
2022-10-23T11:59:54.749Z,10.32
2022-10-23T12:02:41.597Z,10.32
2022-10-23T12:05:30.082Z,10.32
2022-10-23T12:07:59.988Z,11.45
2022-10-23T12:10:45.923Z,14.02
2022-10-23T12:13:48.414Z,13.27
2022-10-23T12:16:15.434Z,9.95
2022-10-23T12:19:17.806Z,10.57
2022-10-23T12:21:45.767Z,10.50
2022-10-23T12:24:56.485Z,10.43
2022-10-23T12:27:37.871Z,9.43
2022-10-23T12:30:33.275Z,8.73
2022-10-23T12:33:22.231Z,9.57
2022-10-23T12:36:33.687Z,8.57
2022-10-23T12:39:01.129Z,11.40
2022-10-23T12:41:30.716Z,10.05
2022-10-23T12:44:05.426Z,9.60
2022-10-23T12:46:32.267Z,9.73
2022-10-23T12:49:00.702Z,10.32
2022-10-23T12:51:30.275Z,9.50
2022-10-23T12:53:57.516Z,11.10
2022-10-23T12:56:35.189Z,10.60
2022-10-23T12:59:02.966Z,12.70
2022-10-23T13:01:34.872Z,11.77
2022-10-23T13:04:11.143Z,11.50
2022-10-23T13:06:39.981Z,10.60
2022-10-23T13:09:23.563Z,10.77
2022-10-23T13:11:52.297Z,10.50
2022-10-23T13:14:33.274Z,10.18
2022-10-23T13:17:05.579Z,9.07
2022-10-23T13:22:00.358Z,10.27
2022-10-23T13:24:29.555Z,10.60
2022-10-23T13:26:57.834Z,9.40
2022-10-23T13:29:31.670Z,10.48
2022-10-23T13:32:10.581Z,11.23
2022-10-23T13:34:37.535Z,10.50
2022-10-23T13:37:24.706Z,8.65
2022-10-23T13:40:20.111Z,10.70
2022-10-23T13:42:57.293Z,9.40
2022-10-23T13:45:26.639Z,8.93
2022-10-23T13:47:54.620Z,9.10
2022-10-23T13:50:21.536Z,13.40
2022-10-23T13:52:48.522Z,11.68
2022-10-23T13:55:23.952Z,12.25
2022-10-23T13:57:50.961Z,11.02
2022-10-23T14:00:18.710Z,10.30
2022-10-23T14:02:45.702Z,11.48
2022-10-23T14:05:13.001Z,11.23
2022-10-23T14:07:39.953Z,9.32
2022-10-23T14:10:07.160Z,13.02
2022-10-23T14:12:43.682Z,11.20
2022-10-23T14:15:11.868Z,11.07
2022-10-23T14:17:38.931Z,10.60
2022-10-23T14:20:06.711Z,11.50
2022-10-23T14:22:33.868Z,10.43
2022-10-23T14:25:00.769Z,10.38
2022-10-23T14:27:27.686Z,11.65
2022-10-23T14:29:54.594Z,12.07
2022-10-23T14:32:21.532Z,10.20
2022-10-23T14:34:54.008Z,11.10
2022-10-23T14:37:21.334Z,12.95
2022-10-23T14:39:50.210Z,11.50
2022-10-23T14:42:17.627Z,12.88
2022-10-23T14:44:45.146Z,11.43
2022-10-23T14:47:12.228Z,10.75
2022-10-23T14:49:40.414Z,10.95
2022-10-23T14:52:08.310Z,12.48
2022-10-23T14:54:36.523Z,13.15
2022-10-23T14:57:04.077Z,12.20
2022-10-23T14:59:31.248Z,10.02
2022-10-23T15:01:58.144Z,9.93
2022-10-23T15:04:25.138Z,11.88
2022-10-23T15:06:52.607Z,13.48
2022-10-23T15:09:20.297Z,18.15
2022-10-23T15:11:47.702Z,18.75
2022-10-23T15:14:14.656Z,23.65
2022-10-23T15:16:42.196Z,22.50
2022-10-23T15:19:13.503Z,21.40
2022-10-23T15:21:44.307Z,19.70
2022-10-23T15:24:11.208Z,18.40
2022-10-23T15:26:38.640Z,17.85
2022-10-23T15:29:06.666Z,21.50
2022-10-23T15:31:40.897Z,19.00
2022-10-23T15:34:13.729Z,20.42
2022-10-23T15:36:41.145Z,18.73
2022-10-23T15:39:10.372Z,17.08
2022-10-23T15:41:38.926Z,15.88
2022-10-23T15:44:07.459Z,16.20
2022-10-23T15:46:34.682Z,12.70
2022-10-23T15:49:01.786Z,11.88
2022-10-23T15:51:29.045Z,14.50
2022-10-23T15:53:57.127Z,12.98
2022-10-23T15:56:25.061Z,11.65
2022-10-23T15:58:52.113Z,11.45
2022-10-23T16:01:19.179Z,10.90
2022-10-23T16:03:46.916Z,14.38
2022-10-23T16:06:15.732Z,13.32
2022-10-23T16:08:44.018Z,13.05
2022-10-23T16:11:25.338Z,15.70
2022-10-23T16:13:53.739Z,22.92
2022-10-23T16:16:20.704Z,28.35
2022-10-23T16:18:47.779Z,28.52
2022-10-23T16:21:23.136Z,30.67
2022-10-23T16:23:51.708Z,37.90
2022-10-23T16:26:19.504Z,34.72
2022-10-23T16:28:47.544Z,34.45
2022-10-23T16:31:20.538Z,33.55
2022-10-23T16:33:48.473Z,32.72
2022-10-23T16:36:16.239Z,38.97
2022-10-23T16:38:43.341Z,36.88
2022-10-23T16:41:10.474Z,30.38
2022-10-23T16:43:37.526Z,29.10
2022-10-23T16:46:06.514Z,30.45
2022-10-23T16:48:34.866Z,29.17
2022-10-23T16:51:09.257Z,28.98
2022-10-23T16:53:36.905Z,29.30
2022-10-23T16:56:08.078Z,32.03
2022-10-23T16:58:37.089Z,29.85
2022-10-23T17:01:08.070Z,29.65
2022-10-23T17:03:37.478Z,26.52
2022-10-23T17:06:08.880Z,27.23
2022-10-23T17:08:38.304Z,24.33
2022-10-23T17:11:22.893Z,23.13
2022-10-23T17:13:53.971Z,24.17
2022-10-23T17:16:37.679Z,22.27
2022-10-23T17:19:15.883Z,22.15
2022-10-23T17:21:48.481Z,20.67
2022-10-23T17:24:15.561Z,20.38
2022-10-23T17:26:42.796Z,19.02
2022-10-23T17:29:11.513Z,18.38
2022-10-23T17:31:41.065Z,17.73
2022-10-23T17:34:12.379Z,18.38
2022-10-23T17:36:43.323Z,17.02
2022-10-23T17:39:12.437Z,16.45
2022-10-23T17:41:39.995Z,18.33
2022-10-23T17:44:06.994Z,16.60
2022-10-23T17:46:34.143Z,23.60
2022-10-23T17:51:36.156Z,22.55
2022-10-23T17:54:06.351Z,21.98
2022-10-23T17:56:34.670Z,21.40
2022-10-23T17:59:07.755Z,20.60
2022-10-23T18:01:35.413Z,18.65
2022-10-23T18:04:04.862Z,21.05
2022-10-23T18:06:35.619Z,22.70
2022-10-23T18:09:05.079Z,20.67
2022-10-23T18:11:35.387Z,20.52
2022-10-23T18:14:03.383Z,19.63
2022-10-23T18:16:30.621Z,24.33
2022-10-23T18:18:59.826Z,23.70
2022-10-23T18:21:27.131Z,25.75
2022-10-23T18:23:54.376Z,27.70
2022-10-23T18:26:23.928Z,27.70
2022-10-23T18:28:53.373Z,29.33
2022-10-23T18:31:21.125Z,31.75
2022-10-23T18:33:48.127Z,37.88
2022-10-23T18:36:18.750Z,29.63
2022-10-23T18:38:45.817Z,28.58
2022-10-23T18:41:12.802Z,29.92
2022-10-23T18:43:44.384Z,29.70
2022-10-23T18:46:13.161Z,24.60
2022-10-23T18:48:41.228Z,24.92
2022-10-23T18:51:17.623Z,23.63
2022-10-23T18:53:47.861Z,22.58
2022-10-23T18:56:16.357Z,23.17
2022-10-23T18:58:43.467Z,24.02
2022-10-23T19:01:10.490Z,23.67
2022-10-23T19:03:37.507Z,23.90
2022-10-23T19:06:07.244Z,23.45
2022-10-23T19:08:40.141Z,23.20
2022-10-23T19:11:08.253Z,20.83
2022-10-23T19:13:39.145Z,23.33
2022-10-23T19:16:26.236Z,21.00
2022-10-23T19:19:00.670Z,21.27
2022-10-23T19:21:31.343Z,21.92
2022-10-23T19:24:03.312Z,19.83
2022-10-23T19:26:32.691Z,21.13
2022-10-23T19:29:00.231Z,25.17
2022-10-23T19:31:28.284Z,21.50
2022-10-23T19:33:55.634Z,20.30
2022-10-23T19:36:23.648Z,21.42
2022-10-23T19:38:51.233Z,21.05
2022-10-23T19:41:18.947Z,23.77
2022-10-23T19:43:46.609Z,25.10
2022-10-23T19:46:14.161Z,28.48
2022-10-23T19:48:44.738Z,29.30
2022-10-23T19:51:13.511Z,30.77
2022-10-23T19:53:42.126Z,29.10
2022-10-23T19:56:11.818Z,27.38
2022-10-23T19:58:39.498Z,29.50
2022-10-23T20:01:15.786Z,24.25
2022-10-23T20:03:45.606Z,20.55
2022-10-23T20:06:14.620Z,19.08
2022-10-23T20:08:42.026Z,19.23
2022-10-23T20:11:09.557Z,20.35
2022-10-23T20:13:36.763Z,22.30
2022-10-23T20:16:04.408Z,20.50
2022-10-23T20:18:31.628Z,25.50
2022-10-23T20:21:02.765Z,21.73
2022-10-23T20:23:29.680Z,22.95
2022-10-23T20:26:08.106Z,21.65
2022-10-23T20:28:35.982Z,21.48
2022-10-23T20:31:10.316Z,15.25
2022-10-23T20:33:39.133Z,17.50
2022-10-23T20:36:08.073Z,16.95
2022-10-23T20:38:36.058Z,14.57
2022-10-23T20:41:07.088Z,15.57
2022-10-23T20:43:34.097Z,14.80
2022-10-23T20:46:09.886Z,16.80
2022-10-23T20:48:41.367Z,16.73
2022-10-23T20:51:14.121Z,17.73
2022-10-23T20:56:10.356Z,17.73
2022-10-23T20:58:37.369Z,17.48
2022-10-23T21:01:07.277Z,18.77
2022-10-23T21:03:34.402Z,20.58
2022-10-23T21:06:10.591Z,26.08
2022-10-23T21:08:37.993Z,22.42
2022-10-23T21:11:05.849Z,21.38
2022-10-23T21:13:32.786Z,20.77
2022-10-23T21:15:59.790Z,23.42
2022-10-23T21:18:45.048Z,19.85
2022-10-23T21:21:14.262Z,16.60
2022-10-23T21:23:41.233Z,17.95
2022-10-23T21:26:08.592Z,18.67
2022-10-23T21:28:35.885Z,16.13
2022-10-23T21:31:05.408Z,18.15
2022-10-23T21:33:32.991Z,20.05
2022-10-23T21:36:11.831Z,21.27
2022-10-23T21:38:40.263Z,18.75
2022-10-23T21:41:13.122Z,22.30
2022-10-23T21:46:14.032Z,23.00
2022-10-23T21:48:41.377Z,23.70
2022-10-23T21:51:14.155Z,22.42
2022-10-23T21:56:19.374Z,24.55
2022-10-23T21:58:46.254Z,20.80
2022-10-23T22:01:13.193Z,20.77
2022-10-23T22:03:40.220Z,19.25
2022-10-23T22:06:09.245Z,20.63
2022-10-23T22:08:36.214Z,21.17
2022-10-23T22:11:05.619Z,20.52
2022-10-23T22:13:32.524Z,32.03
2022-10-23T22:16:02.878Z,24.67
2022-10-23T22:18:29.894Z,24.60
2022-10-23T22:21:06.377Z,24.58
2022-10-23T22:23:33.672Z,32.03
2022-10-23T22:26:09.970Z,31.60
2022-10-23T22:28:36.946Z,30.60
2022-10-23T22:31:03.842Z,29.58
2022-10-23T22:33:31.773Z,28.77
2022-10-23T22:36:03.130Z,28.70
2022-10-23T22:38:32.260Z,26.50
2022-10-23T22:41:03.233Z,25.27
2022-10-23T22:43:30.646Z,23.88
2022-10-23T22:46:11.012Z,21.05
2022-10-23T22:48:39.003Z,19.88
2022-10-23T22:51:09.047Z,21.38
2022-10-23T22:53:36.441Z,23.05
2022-10-23T22:56:07.911Z,22.75
2022-10-23T22:58:35.723Z,20.05
2022-10-23T23:01:13.751Z,21.60
2022-10-23T23:03:41.346Z,20.55
2022-10-23T23:06:09.160Z,25.25
2022-10-23T23:08:38.066Z,19.67
2022-10-23T23:11:06.713Z,20.45
2022-10-23T23:13:34.655Z,20.73
2022-10-23T23:16:02.508Z,21.20
2022-10-23T23:18:30.610Z,15.07
2022-10-23T23:21:05.747Z,13.45
2022-10-23T23:23:32.686Z,14.82
2022-10-23T23:25:59.586Z,15.23
2022-10-23T23:28:26.692Z,15.80
2022-10-23T23:31:07.537Z,18.58
2022-10-23T23:33:34.997Z,20.83
2022-10-23T23:36:07.351Z,20.23
2022-10-23T23:38:35.152Z,25.38
2022-10-23T23:41:02.551Z,26.55
2022-10-23T23:43:30.066Z,23.00
2022-10-23T23:45:57.771Z,24.05
2022-10-23T23:48:25.594Z,27.48
2022-10-23T23:50:52.562Z,25.30
2022-10-23T23:53:19.501Z,21.42
2022-10-23T23:55:46.489Z,21.45
2022-10-23T23:58:13.520Z,21.55
